sensor_id;sensor_type;location;lat;lon;timestamp;temperature;humidity
17333;DHT22;8784;50.94667800;7.08448400;2022-07-24T00:01:15;19.30;93.30
17333;DHT22;8784;50.94667800;7.08448400;2022-07-24T00:03:42;19.30;93.50
17333;DHT22;8784;50.94667800;7.08448400;2022-07-24T00:06:09;19.30;93.60
17333;DHT22;8784;50.94667800;7.08448400;2022-07-24T00:08:36;19.20;93.70
17333;DHT22;8784;50.94667800;7.08448400;2022-07-24T00:11:05;19.20;93.90
17333;DHT22;8784;50.94667800;7.08448400;2022-07-24T00:13:32;19.10;93.90
17333;DHT22;8784;50.94667800;7.08448400;2022-07-24T00:16:00;19.10;94.10
17333;DHT22;8784;50.94667800;7.08448400;2022-07-24T00:18:26;19.10;94.20
17333;DHT22;8784;50.94667800;7.08448400;2022-07-24T00:20:54;19.10;94.40
17333;DHT22;8784;50.94667800;7.08448400;2022-07-24T00:23:21;19.10;94.50
17333;DHT22;8784;50.94667800;7.08448400;2022-07-24T00:25:49;19.00;94.50
17333;DHT22;8784;50.94667800;7.08448400;2022-07-24T00:28:17;19.00;94.60
17333;DHT22;8784;50.94667800;7.08448400;2022-07-24T00:30:44;18.90;94.80
17333;DHT22;8784;50.94667800;7.08448400;2022-07-24T00:33:11;18.90;95.00
17333;DHT22;8784;50.94667800;7.08448400;2022-07-24T00:35:38;18.90;95.20
17333;DHT22;8784;50.94667800;7.08448400;2022-07-24T00:38:05;18.90;95.30
17333;DHT22;8784;50.94667800;7.08448400;2022-07-24T00:40:32;18.90;95.40
17333;DHT22;8784;50.94667800;7.08448400;2022-07-24T00:42:59;18.80;95.50
17333;DHT22;8784;50.94667800;7.08448400;2022-07-24T00:45:27;18.80;95.60
17333;DHT22;8784;50.94667800;7.08448400;2022-07-24T00:47:54;18.80;95.60
17333;DHT22;8784;50.94667800;7.08448400;2022-07-24T00:50:21;18.80;95.70
17333;DHT22;8784;50.94667800;7.08448400;2022-07-24T00:52:48;18.80;95.80
17333;DHT22;8784;50.94667800;7.08448400;2022-07-24T00:55:16;18.70;95.90
17333;DHT22;8784;50.94667800;7.08448400;2022-07-24T00:57:43;18.70;95.90
17333;DHT22;8784;50.94667800;7.08448400;2022-07-24T01:00:16;18.70;96.10
17333;DHT22;8784;50.94667800;7.08448400;2022-07-24T01:02:44;18.60;96.10
17333;DHT22;8784;50.94667800;7.08448400;2022-07-24T01:05:13;18.60;96.30
17333;DHT22;8784;50.94667800;7.08448400;2022-07-24T01:07:40;18.60;96.40
17333;DHT22;8784;50.94667800;7.08448400;2022-07-24T01:10:08;18.60;96.50
17333;DHT22;8784;50.94667800;7.08448400;2022-07-24T01:12:36;18.60;96.50
17333;DHT22;8784;50.94667800;7.08448400;2022-07-24T01:15:06;18.60;96.60
17333;DHT22;8784;50.94667800;7.08448400;2022-07-24T01:17:35;18.50;96.70
17333;DHT22;8784;50.94667800;7.08448400;2022-07-24T01:20:05;18.50;96.90
17333;DHT22;8784;50.94667800;7.08448400;2022-07-24T01:22:34;18.50;96.90
17333;DHT22;8784;50.94667800;7.08448400;2022-07-24T01:25:01;18.40;96.90
17333;DHT22;8784;50.94667800;7.08448400;2022-07-24T01:27:29;18.40;97.00
17333;DHT22;8784;50.94667800;7.08448400;2022-07-24T01:29:56;18.30;97.20
17333;DHT22;8784;50.94667800;7.08448400;2022-07-24T01:32:23;18.40;97.30
17333;DHT22;8784;50.94667800;7.08448400;2022-07-24T01:34:49;18.40;97.30
17333;DHT22;8784;50.94667800;7.08448400;2022-07-24T01:37:16;18.30;97.30
17333;DHT22;8784;50.94667800;7.08448400;2022-07-24T01:39:45;18.30;97.40
17333;DHT22;8784;50.94667800;7.08448400;2022-07-24T01:42:12;18.30;97.60
17333;DHT22;8784;50.94667800;7.08448400;2022-07-24T01:44:39;18.30;97.70
17333;DHT22;8784;50.94667800;7.08448400;2022-07-24T01:47:06;18.30;97.70
17333;DHT22;8784;50.94667800;7.08448400;2022-07-24T01:49:33;18.20;97.60
17333;DHT22;8784;50.94667800;7.08448400;2022-07-24T01:52:00;18.20;97.80
17333;DHT22;8784;50.94667800;7.08448400;2022-07-24T01:54:30;18.10;98.00
17333;DHT22;8784;50.94667800;7.08448400;2022-07-24T01:56:59;18.00;98.10
17333;DHT22;8784;50.94667800;7.08448400;2022-07-24T01:59:25;17.90;98.20
17333;DHT22;8784;50.94667800;7.08448400;2022-07-24T02:01:52;17.80;98.30
17333;DHT22;8784;50.94667800;7.08448400;2022-07-24T02:04:20;17.80;98.50
17333;DHT22;8784;50.94667800;7.08448400;2022-07-24T02:06:46;17.80;98.70
17333;DHT22;8784;50.94667800;7.08448400;2022-07-24T02:09:13;17.80;98.70
17333;DHT22;8784;50.94667800;7.08448400;2022-07-24T02:11:40;17.80;98.70
17333;DHT22;8784;50.94667800;7.08448400;2022-07-24T02:14:09;17.70;98.80
17333;DHT22;8784;50.94667800;7.08448400;2022-07-24T02:16:35;17.70;98.90
17333;DHT22;8784;50.94667800;7.08448400;2022-07-24T02:19:02;17.80;98.90
17333;DHT22;8784;50.94667800;7.08448400;2022-07-24T02:21:29;17.80;98.90
17333;DHT22;8784;50.94667800;7.08448400;2022-07-24T02:23:56;17.80;99.00
17333;DHT22;8784;50.94667800;7.08448400;2022-07-24T02:26:23;17.80;99.00
17333;DHT22;8784;50.94667800;7.08448400;2022-07-24T02:28:50;17.80;98.90
17333;DHT22;8784;50.94667800;7.08448400;2022-07-24T02:31:19;17.80;99.00
17333;DHT22;8784;50.94667800;7.08448400;2022-07-24T02:33:46;17.80;99.00
17333;DHT22;8784;50.94667800;7.08448400;2022-07-24T02:36:13;17.80;99.00
17333;DHT22;8784;50.94667800;7.08448400;2022-07-24T02:38:41;17.80;99.00
17333;DHT22;8784;50.94667800;7.08448400;2022-07-24T02:41:08;17.70;99.10
17333;DHT22;8784;50.94667800;7.08448400;2022-07-24T02:43:35;17.70;99.10
17333;DHT22;8784;50.94667800;7.08448400;2022-07-24T02:46:02;17.70;99.20
17333;DHT22;8784;50.94667800;7.08448400;2022-07-24T02:48:30;17.70;99.30
17333;DHT22;8784;50.94667800;7.08448400;2022-07-24T02:50:57;17.70;99.40
17333;DHT22;8784;50.94667800;7.08448400;2022-07-24T02:53:24;17.70;99.40
17333;DHT22;8784;50.94667800;7.08448400;2022-07-24T02:55:51;17.70;99.40
17333;DHT22;8784;50.94667800;7.08448400;2022-07-24T02:58:18;17.60;99.50
17333;DHT22;8784;50.94667800;7.08448400;2022-07-24T03:00:45;17.60;99.60
17333;DHT22;8784;50.94667800;7.08448400;2022-07-24T03:03:12;17.60;99.60
17333;DHT22;8784;50.94667800;7.08448400;2022-07-24T03:05:40;17.60;99.70
17333;DHT22;8784;50.94667800;7.08448400;2022-07-24T03:08:08;17.50;99.80
17333;DHT22;8784;50.94667800;7.08448400;2022-07-24T03:10:35;17.50;99.90
17333;DHT22;8784;50.94667800;7.08448400;2022-07-24T03:13:02;17.60;99.90
17333;DHT22;8784;50.94667800;7.08448400;2022-07-24T03:15:31;17.50;99.90
17333;DHT22;8784;50.94667800;7.08448400;2022-07-24T03:17:58;17.50;99.90
17333;DHT22;8784;50.94667800;7.08448400;2022-07-24T03:20:26;17.50;99.90
17333;DHT22;8784;50.94667800;7.08448400;2022-07-24T03:22:56;17.40;99.90
17333;DHT22;8784;50.94667800;7.08448400;2022-07-24T03:25:25;17.40;99.90
17333;DHT22;8784;50.94667800;7.08448400;2022-07-24T03:28:11;17.40;99.90
17333;DHT22;8784;50.94667800;7.08448400;2022-07-24T03:30:38;17.40;99.90
17333;DHT22;8784;50.94667800;7.08448400;2022-07-24T03:33:05;17.40;99.90
17333;DHT22;8784;50.94667800;7.08448400;2022-07-24T03:35:32;17.40;99.90
17333;DHT22;8784;50.94667800;7.08448400;2022-07-24T03:38:01;17.40;99.90
17333;DHT22;8784;50.94667800;7.08448400;2022-07-24T03:40:28;17.40;99.90
17333;DHT22;8784;50.94667800;7.08448400;2022-07-24T03:42:55;17.40;99.90
17333;DHT22;8784;50.94667800;7.08448400;2022-07-24T03:45:22;17.30;99.90
17333;DHT22;8784;50.94667800;7.08448400;2022-07-24T03:47:49;17.30;99.90
17333;DHT22;8784;50.94667800;7.08448400;2022-07-24T03:50:16;17.30;99.90
17333;DHT22;8784;50.94667800;7.08448400;2022-07-24T03:52:43;17.30;99.90
17333;DHT22;8784;50.94667800;7.08448400;2022-07-24T03:55:11;17.30;99.90
17333;DHT22;8784;50.94667800;7.08448400;2022-07-24T03:57:39;17.30;99.90
17333;DHT22;8784;50.94667800;7.08448400;2022-07-24T04:00:07;17.30;99.90
17333;DHT22;8784;50.94667800;7.08448400;2022-07-24T04:02:35;17.20;99.90
17333;DHT22;8784;50.94667800;7.08448400;2022-07-24T04:05:02;17.20;99.90
17333;DHT22;8784;50.94667800;7.08448400;2022-07-24T04:07:32;17.20;99.90
17333;DHT22;8784;50.94667800;7.08448400;2022-07-24T04:09:59;17.20;99.90
17333;DHT22;8784;50.94667800;7.08448400;2022-07-24T04:12:31;17.20;99.90
17333;DHT22;8784;50.94667800;7.08448400;2022-07-24T04:14:58;17.30;99.90
17333;DHT22;8784;50.94667800;7.08448400;2022-07-24T04:17:25;17.30;99.90
17333;DHT22;8784;50.94667800;7.08448400;2022-07-24T04:19:52;17.30;99.90
17333;DHT22;8784;50.94667800;7.08448400;2022-07-24T04:22:19;17.40;99.90
17333;DHT22;8784;50.94667800;7.08448400;2022-07-24T04:24:46;17.40;99.90
17333;DHT22;8784;50.94667800;7.08448400;2022-07-24T04:27:13;17.40;99.90
17333;DHT22;8784;50.94667800;7.08448400;2022-07-24T04:29:41;17.40;99.90
17333;DHT22;8784;50.94667800;7.08448400;2022-07-24T04:32:08;17.40;99.90
17333;DHT22;8784;50.94667800;7.08448400;2022-07-24T04:34:35;17.40;99.90
17333;DHT22;8784;50.94667800;7.08448400;2022-07-24T04:37:18;17.50;99.90
17333;DHT22;8784;50.94667800;7.08448400;2022-07-24T04:39:45;17.50;99.90
17333;DHT22;8784;50.94667800;7.08448400;2022-07-24T04:42:12;17.60;99.90
17333;DHT22;8784;50.94667800;7.08448400;2022-07-24T04:44:41;17.60;99.90
17333;DHT22;8784;50.94667800;7.08448400;2022-07-24T04:47:08;17.60;99.90
17333;DHT22;8784;50.94667800;7.08448400;2022-07-24T04:49:35;17.70;99.90
17333;DHT22;8784;50.94667800;7.08448400;2022-07-24T04:52:02;17.80;99.90
17333;DHT22;8784;50.94667800;7.08448400;2022-07-24T04:54:29;17.80;99.90
17333;DHT22;8784;50.94667800;7.08448400;2022-07-24T04:56:56;17.80;99.90
17333;DHT22;8784;50.94667800;7.08448400;2022-07-24T04:59:23;17.90;99.90
17333;DHT22;8784;50.94667800;7.08448400;2022-07-24T05:01:51;18.00;99.90
17333;DHT22;8784;50.94667800;7.08448400;2022-07-24T05:04:18;18.00;99.90
17333;DHT22;8784;50.94667800;7.08448400;2022-07-24T05:06:45;18.00;99.90
17333;DHT22;8784;50.94667800;7.08448400;2022-07-24T05:09:12;18.10;99.90
17333;DHT22;8784;50.94667800;7.08448400;2022-07-24T05:11:39;18.10;99.90
17333;DHT22;8784;50.94667800;7.08448400;2022-07-24T05:14:06;18.20;99.90
17333;DHT22;8784;50.94667800;7.08448400;2022-07-24T05:16:33;18.20;99.90
17333;DHT22;8784;50.94667800;7.08448400;2022-07-24T05:19:02;18.30;99.90
17333;DHT22;8784;50.94667800;7.08448400;2022-07-24T05:21:29;18.30;99.90
17333;DHT22;8784;50.94667800;7.08448400;2022-07-24T05:23:57;18.40;99.90
17333;DHT22;8784;50.94667800;7.08448400;2022-07-24T05:26:27;18.50;99.90
17333;DHT22;8784;50.94667800;7.08448400;2022-07-24T05:28:57;18.60;99.90
17333;DHT22;8784;50.94667800;7.08448400;2022-07-24T05:31:24;18.70;99.90
17333;DHT22;8784;50.94667800;7.08448400;2022-07-24T05:33:52;18.80;99.90
17333;DHT22;8784;50.94667800;7.08448400;2022-07-24T05:36:21;18.90;99.90
17333;DHT22;8784;50.94667800;7.08448400;2022-07-24T05:38:48;19.00;99.90
17333;DHT22;8784;50.94667800;7.08448400;2022-07-24T05:41:37;19.10;99.90
17333;DHT22;8784;50.94667800;7.08448400;2022-07-24T05:44:05;19.20;99.90
17333;DHT22;8784;50.94667800;7.08448400;2022-07-24T05:46:32;19.40;99.90
17333;DHT22;8784;50.94667800;7.08448400;2022-07-24T05:48:59;19.50;99.90
17333;DHT22;8784;50.94667800;7.08448400;2022-07-24T05:51:27;19.60;99.90
17333;DHT22;8784;50.94667800;7.08448400;2022-07-24T05:53:55;19.70;99.90
17333;DHT22;8784;50.94667800;7.08448400;2022-07-24T05:56:22;19.80;99.90
17333;DHT22;8784;50.94667800;7.08448400;2022-07-24T05:58:49;19.90;99.90
17333;DHT22;8784;50.94667800;7.08448400;2022-07-24T06:01:16;20.00;99.90
17333;DHT22;8784;50.94667800;7.08448400;2022-07-24T06:03:43;20.10;99.80
17333;DHT22;8784;50.94667800;7.08448400;2022-07-24T06:06:10;20.30;99.80
17333;DHT22;8784;50.94667800;7.08448400;2022-07-24T06:08:39;20.30;99.60
17333;DHT22;8784;50.94667800;7.08448400;2022-07-24T06:11:06;20.40;99.50
17333;DHT22;8784;50.94667800;7.08448400;2022-07-24T06:13:33;20.50;99.30
17333;DHT22;8784;50.94667800;7.08448400;2022-07-24T06:16:01;20.50;99.10
17333;DHT22;8784;50.94667800;7.08448400;2022-07-24T06:18:28;20.60;99.10
17333;DHT22;8784;50.94667800;7.08448400;2022-07-24T06:20:55;20.60;99.00
17333;DHT22;8784;50.94667800;7.08448400;2022-07-24T06:23:22;20.70;98.90
17333;DHT22;8784;50.94667800;7.08448400;2022-07-24T06:25:51;20.80;98.80
17333;DHT22;8784;50.94667800;7.08448400;2022-07-24T06:28:18;20.90;98.70
17333;DHT22;8784;50.94667800;7.08448400;2022-07-24T06:30:46;21.00;98.60
17333;DHT22;8784;50.94667800;7.08448400;2022-07-24T06:33:12;21.10;98.50
17333;DHT22;8784;50.94667800;7.08448400;2022-07-24T06:35:39;21.20;98.40
17333;DHT22;8784;50.94667800;7.08448400;2022-07-24T06:38:06;21.30;98.10
17333;DHT22;8784;50.94667800;7.08448400;2022-07-24T06:40:37;21.40;97.80
17333;DHT22;8784;50.94667800;7.08448400;2022-07-24T06:43:05;21.50;97.60
17333;DHT22;8784;50.94667800;7.08448400;2022-07-24T06:45:35;21.70;97.40
17333;DHT22;8784;50.94667800;7.08448400;2022-07-24T06:48:21;21.80;97.10
17333;DHT22;8784;50.94667800;7.08448400;2022-07-24T06:50:48;22.20;96.70
17333;DHT22;8784;50.94667800;7.08448400;2022-07-24T06:53:15;22.70;96.00
17333;DHT22;8784;50.94667800;7.08448400;2022-07-24T06:55:42;24.60;95.20
17333;DHT22;8784;50.94667800;7.08448400;2022-07-24T06:58:10;26.80;94.00
17333;DHT22;8784;50.94667800;7.08448400;2022-07-24T07:00:38;28.90;91.60
17333;DHT22;8784;50.94667800;7.08448400;2022-07-24T07:03:05;30.60;88.20
17333;DHT22;8784;50.94667800;7.08448400;2022-07-24T07:05:32;32.10;83.10
17333;DHT22;8784;50.94667800;7.08448400;2022-07-24T07:07:59;33.50;78.80
17333;DHT22;8784;50.94667800;7.08448400;2022-07-24T07:10:26;34.60;74.40
17333;DHT22;8784;50.94667800;7.08448400;2022-07-24T07:12:54;35.50;71.40
17333;DHT22;8784;50.94667800;7.08448400;2022-07-24T07:15:22;36.10;69.00
17333;DHT22;8784;50.94667800;7.08448400;2022-07-24T07:17:49;36.70;66.80
17333;DHT22;8784;50.94667800;7.08448400;2022-07-24T07:20:16;37.30;64.50
17333;DHT22;8784;50.94667800;7.08448400;2022-07-24T07:22:44;37.80;62.50
17333;DHT22;8784;50.94667800;7.08448400;2022-07-24T07:25:11;38.20;60.70
17333;DHT22;8784;50.94667800;7.08448400;2022-07-24T07:27:38;38.50;59.80
17333;DHT22;8784;50.94667800;7.08448400;2022-07-24T07:30:07;38.70;59.20
17333;DHT22;8784;50.94667800;7.08448400;2022-07-24T07:32:36;38.80;58.60
17333;DHT22;8784;50.94667800;7.08448400;2022-07-24T07:35:04;39.10;57.30
17333;DHT22;8784;50.94667800;7.08448400;2022-07-24T07:37:31;39.30;56.50
17333;DHT22;8784;50.94667800;7.08448400;2022-07-24T07:39:58;39.40;55.40
17333;DHT22;8784;50.94667800;7.08448400;2022-07-24T07:42:25;39.40;55.00
17333;DHT22;8784;50.94667800;7.08448400;2022-07-24T07:44:52;39.40;54.20
17333;DHT22;8784;50.94667800;7.08448400;2022-07-24T07:47:19;39.50;54.00
17333;DHT22;8784;50.94667800;7.08448400;2022-07-24T07:49:47;39.50;53.70
17333;DHT22;8784;50.94667800;7.08448400;2022-07-24T07:52:15;39.40;53.90
17333;DHT22;8784;50.94667800;7.08448400;2022-07-24T07:54:41;39.50;53.30
17333;DHT22;8784;50.94667800;7.08448400;2022-07-24T07:57:10;39.60;52.50
17333;DHT22;8784;50.94667800;7.08448400;2022-07-24T07:59:37;39.70;52.00
17333;DHT22;8784;50.94667800;7.08448400;2022-07-24T08:02:04;39.80;51.60
17333;DHT22;8784;50.94667800;7.08448400;2022-07-24T08:04:31;39.80;51.40
17333;DHT22;8784;50.94667800;7.08448400;2022-07-24T08:06:59;39.70;51.20
17333;DHT22;8784;50.94667800;7.08448400;2022-07-24T08:09:26;39.60;51.20
17333;DHT22;8784;50.94667800;7.08448400;2022-07-24T08:11:54;39.70;51.30
17333;DHT22;8784;50.94667800;7.08448400;2022-07-24T08:14:20;39.70;51.00
17333;DHT22;8784;50.94667800;7.08448400;2022-07-24T08:16:47;39.80;49.60
17333;DHT22;8784;50.94667800;7.08448400;2022-07-24T08:19:14;40.00;49.50
17333;DHT22;8784;50.94667800;7.08448400;2022-07-24T08:21:41;40.10;49.20
17333;DHT22;8784;50.94667800;7.08448400;2022-07-24T08:24:09;40.00;49.10
17333;DHT22;8784;50.94667800;7.08448400;2022-07-24T08:26:36;40.20;48.30
17333;DHT22;8784;50.94667800;7.08448400;2022-07-24T08:29:03;40.40;47.90
17333;DHT22;8784;50.94667800;7.08448400;2022-07-24T08:31:31;40.50;47.90
17333;DHT22;8784;50.94667800;7.08448400;2022-07-24T08:33:58;40.30;48.00
17333;DHT22;8784;50.94667800;7.08448400;2022-07-24T08:36:25;40.20;47.40
17333;DHT22;8784;50.94667800;7.08448400;2022-07-24T08:38:52;40.40;47.30
17333;DHT22;8784;50.94667800;7.08448400;2022-07-24T08:41:21;40.30;46.80
17333;DHT22;8784;50.94667800;7.08448400;2022-07-24T08:43:48;40.30;46.60
17333;DHT22;8784;50.94667800;7.08448400;2022-07-24T08:46:15;40.30;46.60
17333;DHT22;8784;50.94667800;7.08448400;2022-07-24T08:48:43;40.00;46.60
17333;DHT22;8784;50.94667800;7.08448400;2022-07-24T08:51:12;39.90;46.80
17333;DHT22;8784;50.94667800;7.08448400;2022-07-24T08:54:02;39.70;46.70
17333;DHT22;8784;50.94667800;7.08448400;2022-07-24T08:56:31;39.70;44.30
17333;DHT22;8784;50.94667800;7.08448400;2022-07-24T08:58:59;39.70;46.40
17333;DHT22;8784;50.94667800;7.08448400;2022-07-24T09:01:27;39.70;46.30
17333;DHT22;8784;50.94667800;7.08448400;2022-07-24T09:03:54;39.70;46.30
17333;DHT22;8784;50.94667800;7.08448400;2022-07-24T09:06:21;39.70;46.20
17333;DHT22;8784;50.94667800;7.08448400;2022-07-24T09:08:57;39.70;46.00
17333;DHT22;8784;50.94667800;7.08448400;2022-07-24T09:11:26;39.80;45.40
17333;DHT22;8784;50.94667800;7.08448400;2022-07-24T09:14:00;39.80;45.70
17333;DHT22;8784;50.94667800;7.08448400;2022-07-24T09:16:46;39.80;45.70
17333;DHT22;8784;50.94667800;7.08448400;2022-07-24T09:19:13;39.70;45.60
17333;DHT22;8784;50.94667800;7.08448400;2022-07-24T09:21:42;39.80;45.50
17333;DHT22;8784;50.94667800;7.08448400;2022-07-24T09:24:14;39.80;45.70
17333;DHT22;8784;50.94667800;7.08448400;2022-07-24T09:26:48;39.80;45.60
17333;DHT22;8784;50.94667800;7.08448400;2022-07-24T09:29:18;39.90;45.50
17333;DHT22;8784;50.94667800;7.08448400;2022-07-24T09:31:54;40.00;45.40
17333;DHT22;8784;50.94667800;7.08448400;2022-07-24T09:34:21;40.10;45.10
17333;DHT22;8784;50.94667800;7.08448400;2022-07-24T09:36:56;40.10;44.90
17333;DHT22;8784;50.94667800;7.08448400;2022-07-24T09:39:24;40.20;44.40
17333;DHT22;8784;50.94667800;7.08448400;2022-07-24T09:41:52;40.10;44.50
17333;DHT22;8784;50.94667800;7.08448400;2022-07-24T09:44:21;40.10;44.50
17333;DHT22;8784;50.94667800;7.08448400;2022-07-24T09:46:55;40.10;44.20
17333;DHT22;8784;50.94667800;7.08448400;2022-07-24T09:49:24;40.00;44.20
17333;DHT22;8784;50.94667800;7.08448400;2022-07-24T09:52:11;40.00;44.10
17333;DHT22;8784;50.94667800;7.08448400;2022-07-24T09:54:40;39.90;43.40
17333;DHT22;8784;50.94667800;7.08448400;2022-07-24T09:57:20;39.90;44.20
17333;DHT22;8784;50.94667800;7.08448400;2022-07-24T09:59:51;39.80;43.50
17333;DHT22;8784;50.94667800;7.08448400;2022-07-24T10:02:20;39.70;43.70
17333;DHT22;8784;50.94667800;7.08448400;2022-07-24T10:04:48;39.50;43.60
17333;DHT22;8784;50.94667800;7.08448400;2022-07-24T10:07:18;39.50;43.70
17333;DHT22;8784;50.94667800;7.08448400;2022-07-24T10:09:47;39.40;43.90
17333;DHT22;8784;50.94667800;7.08448400;2022-07-24T10:12:16;39.30;43.90
17333;DHT22;8784;50.94667800;7.08448400;2022-07-24T10:14:44;39.10;44.10
17333;DHT22;8784;50.94667800;7.08448400;2022-07-24T10:17:13;39.00;44.40
17333;DHT22;8784;50.94667800;7.08448400;2022-07-24T10:19:42;38.90;44.10
17333;DHT22;8784;50.94667800;7.08448400;2022-07-24T10:22:13;38.90;44.50
17333;DHT22;8784;50.94667800;7.08448400;2022-07-24T10:24:57;38.80;44.50
17333;DHT22;8784;50.94667800;7.08448400;2022-07-24T10:27:28;38.60;43.60
17333;DHT22;8784;50.94667800;7.08448400;2022-07-24T10:29:58;38.30;44.10
17333;DHT22;8784;50.94667800;7.08448400;2022-07-24T10:32:27;38.20;44.30
17333;DHT22;8784;50.94667800;7.08448400;2022-07-24T10:35:06;38.20;44.10
17333;DHT22;8784;50.94667800;7.08448400;2022-07-24T10:37:39;37.70;44.40
17333;DHT22;8784;50.94667800;7.08448400;2022-07-24T10:40:20;37.50;45.40
17333;DHT22;8784;50.94667800;7.08448400;2022-07-24T10:43:12;37.50;45.00
17333;DHT22;8784;50.94667800;7.08448400;2022-07-24T10:45:40;37.60;45.00
17333;DHT22;8784;50.94667800;7.08448400;2022-07-24T10:48:30;37.80;45.30
17333;DHT22;8784;50.94667800;7.08448400;2022-07-24T10:51:10;38.00;44.20
17333;DHT22;8784;50.94667800;7.08448400;2022-07-24T10:53:58;38.10;44.50
17333;DHT22;8784;50.94667800;7.08448400;2022-07-24T10:56:27;37.90;43.60
17333;DHT22;8784;50.94667800;7.08448400;2022-07-24T10:59:01;37.90;44.50
17333;DHT22;8784;50.94667800;7.08448400;2022-07-24T11:01:55;37.70;44.40
17333;DHT22;8784;50.94667800;7.08448400;2022-07-24T11:04:28;37.50;44.50
17333;DHT22;8784;50.94667800;7.08448400;2022-07-24T11:07:09;37.30;44.70
17333;DHT22;8784;50.94667800;7.08448400;2022-07-24T11:09:54;37.10;44.70
17333;DHT22;8784;50.94667800;7.08448400;2022-07-24T11:12:26;37.00;44.60
17333;DHT22;8784;50.94667800;7.08448400;2022-07-24T11:14:58;36.90;45.10
17333;DHT22;8784;50.94667800;7.08448400;2022-07-24T11:17:47;36.60;45.60
17333;DHT22;8784;50.94667800;7.08448400;2022-07-24T11:20:16;36.50;45.60
17333;DHT22;8784;50.94667800;7.08448400;2022-07-24T11:22:46;36.30;45.60
17333;DHT22;8784;50.94667800;7.08448400;2022-07-24T11:25:16;36.00;45.30
17333;DHT22;8784;50.94667800;7.08448400;2022-07-24T11:27:52;35.60;45.70
17333;DHT22;8784;50.94667800;7.08448400;2022-07-24T11:30:23;35.30;45.90
17333;DHT22;8784;50.94667800;7.08448400;2022-07-24T11:32:50;35.10;46.00
17333;DHT22;8784;50.94667800;7.08448400;2022-07-24T11:35:26;34.90;46.10
17333;DHT22;8784;50.94667800;7.08448400;2022-07-24T11:37:53;34.70;46.40
17333;DHT22;8784;50.94667800;7.08448400;2022-07-24T11:40:22;34.60;46.70
17333;DHT22;8784;50.94667800;7.08448400;2022-07-24T11:42:54;34.50;46.70
17333;DHT22;8784;50.94667800;7.08448400;2022-07-24T11:45:22;34.30;47.00
17333;DHT22;8784;50.94667800;7.08448400;2022-07-24T11:47:49;34.20;47.30
17333;DHT22;8784;50.94667800;7.08448400;2022-07-24T11:50:20;34.10;47.30
17333;DHT22;8784;50.94667800;7.08448400;2022-07-24T11:52:48;34.10;47.40
17333;DHT22;8784;50.94667800;7.08448400;2022-07-24T11:55:17;33.90;47.20
17333;DHT22;8784;50.94667800;7.08448400;2022-07-24T11:57:47;33.70;47.20
17333;DHT22;8784;50.94667800;7.08448400;2022-07-24T12:00:15;33.50;47.30
17333;DHT22;8784;50.94667800;7.08448400;2022-07-24T12:02:43;33.40;47.60
17333;DHT22;8784;50.94667800;7.08448400;2022-07-24T12:05:11;33.30;47.70
17333;DHT22;8784;50.94667800;7.08448400;2022-07-24T12:07:40;33.30;47.80
17333;DHT22;8784;50.94667800;7.08448400;2022-07-24T12:10:07;33.20;47.80
17333;DHT22;8784;50.94667800;7.08448400;2022-07-24T12:12:36;33.30;47.90
17333;DHT22;8784;50.94667800;7.08448400;2022-07-24T12:15:06;33.30;47.80
17333;DHT22;8784;50.94667800;7.08448400;2022-07-24T12:17:35;33.30;48.00
17333;DHT22;8784;50.94667800;7.08448400;2022-07-24T12:20:04;33.30;48.10
17333;DHT22;8784;50.94667800;7.08448400;2022-07-24T12:22:33;33.40;48.10
17333;DHT22;8784;50.94667800;7.08448400;2022-07-24T12:25:02;33.30;47.80
17333;DHT22;8784;50.94667800;7.08448400;2022-07-24T12:27:37;33.10;47.40
17333;DHT22;8784;50.94667800;7.08448400;2022-07-24T12:30:20;32.90;47.80
17333;DHT22;8784;50.94667800;7.08448400;2022-07-24T12:33:01;32.90;48.30
17333;DHT22;8784;50.94667800;7.08448400;2022-07-24T12:35:29;32.90;48.30
17333;DHT22;8784;50.94667800;7.08448400;2022-07-24T12:37:58;32.90;48.20
17333;DHT22;8784;50.94667800;7.08448400;2022-07-24T12:40:30;32.90;48.20
17333;DHT22;8784;50.94667800;7.08448400;2022-07-24T12:43:00;33.00;48.40
17333;DHT22;8784;50.94667800;7.08448400;2022-07-24T12:45:27;33.10;48.30
17333;DHT22;8784;50.94667800;7.08448400;2022-07-24T12:48:09;33.00;47.90
17333;DHT22;8784;50.94667800;7.08448400;2022-07-24T12:50:38;32.90;47.80
17333;DHT22;8784;50.94667800;7.08448400;2022-07-24T12:53:06;32.90;48.10
17333;DHT22;8784;50.94667800;7.08448400;2022-07-24T12:55:35;32.90;48.10
17333;DHT22;8784;50.94667800;7.08448400;2022-07-24T12:58:04;32.90;48.10
17333;DHT22;8784;50.94667800;7.08448400;2022-07-24T13:00:32;32.90;48.10
17333;DHT22;8784;50.94667800;7.08448400;2022-07-24T13:02:59;32.90;48.30
17333;DHT22;8784;50.94667800;7.08448400;2022-07-24T13:05:37;32.90;48.10
17333;DHT22;8784;50.94667800;7.08448400;2022-07-24T13:08:05;32.90;47.90
17333;DHT22;8784;50.94667800;7.08448400;2022-07-24T13:10:34;32.90;47.80
17333;DHT22;8784;50.94667800;7.08448400;2022-07-24T13:13:02;32.80;47.70
17333;DHT22;8784;50.94667800;7.08448400;2022-07-24T13:15:29;32.70;47.70
17333;DHT22;8784;50.94667800;7.08448400;2022-07-24T13:17:56;32.60;47.90
17333;DHT22;8784;50.94667800;7.08448400;2022-07-24T13:20:25;32.70;48.20
17333;DHT22;8784;50.94667800;7.08448400;2022-07-24T13:22:52;32.70;48.50
17333;DHT22;8784;50.94667800;7.08448400;2022-07-24T13:25:19;32.70;48.20
17333;DHT22;8784;50.94667800;7.08448400;2022-07-24T13:27:48;32.70;48.20
17333;DHT22;8784;50.94667800;7.08448400;2022-07-24T13:30:15;32.80;48.20
17333;DHT22;8784;50.94667800;7.08448400;2022-07-24T13:32:42;32.70;48.20
17333;DHT22;8784;50.94667800;7.08448400;2022-07-24T13:35:09;32.80;48.40
17333;DHT22;8784;50.94667800;7.08448400;2022-07-24T13:37:36;32.80;48.30
17333;DHT22;8784;50.94667800;7.08448400;2022-07-24T13:40:05;32.80;48.20
17333;DHT22;8784;50.94667800;7.08448400;2022-07-24T13:42:33;32.80;48.10
17333;DHT22;8784;50.94667800;7.08448400;2022-07-24T13:45:01;32.80;48.10